KTUS

Tucson International Airport

Tucson, Arizona, USA
KTUS 252323Z 2600/2624 31008KT P6SM FEW250 FM260700 15007KT P6SM SCT250 FM261600 VRB04KT P6SM FEW250 FM262000 28008KT P6SM SCT250
Issued Valid From Valid To
Apr-25 @ 23:23 UTC
(4 hours ago)
Apr-26 @ 00:00 UTC
(4 hours ago)
Apr-27 @ 00:00 UTC
(in 20 hours)
Apr-26 @ 00:00 to Apr-26 @ 07:00
KTUS 252323Z 2600/2624 31008KT P6SM FEW250
Wind Visibility Clouds
310° at 8 knots Greater than 6 miles
  • Few at 25,000' AGL
From Apr-26 @ 07:00 to Apr-26 @ 16:00
FM260700 15007KT P6SM SCT250
Wind Visibility Clouds
150° at 7 knots Greater than 6 miles
  • Scattered at 25,000' AGL
From Apr-26 @ 16:00 to Apr-26 @ 20:00
FM261600 VRB04KT P6SM FEW250
Wind Visibility Clouds
Variable at 4 knots Greater than 6 miles
  • Few at 25,000' AGL
From Apr-26 @ 20:00 to Apr-27 @ 00:00
FM262000 28008KT P6SM SCT250
Wind Visibility Clouds
280° at 8 knots Greater than 6 miles
  • Scattered at 25,000' AGL
KTUS 252323Z 2600/2624 31008KT P6SM FEW250 FM260700 15007KT P6SM SCT250 FM261600 VRB04KT P6SM FEW250 FM262000 28008KT P6SM SCT250
Issued Apr-25 @ 23:23 UTC
(4 hours ago)
Valid From Apr-26 @ 00:00 UTC
(4 hours ago)
Valid To Apr-27 @ 00:00 UTC
(in 20 hours)
Apr-26 @ 00:00 - Apr-26 @ 07:00
Wind Visibility
310° at 8 knots Greater than 6 miles
Clouds
  • Few at 25,000' AGL
From Apr-26 @ 07:00 - Apr-26 @ 16:00
Wind Visibility
150° at 7 knots Greater than 6 miles
Clouds
  • Scattered at 25,000' AGL
From Apr-26 @ 16:00 - Apr-26 @ 20:00
Wind Visibility
Variable at 4 knots Greater than 6 miles
Clouds
  • Few at 25,000' AGL
From Apr-26 @ 20:00 - Apr-27 @ 00:00
Wind Visibility
280° at 8 knots Greater than 6 miles
Clouds
  • Scattered at 25,000' AGL